Time;durP1;ratioP1;P1;durP2;ratioP2;P2;SDS_P1;SDS_P2;PMS_P1;PMS_P2;Temp;Humidity;BMP_temperature;BMP_pressure;BME280_temperature;BME280_humidity;BME280_pressure;Samples;Min_cycle;Max_cycle;Signal;HPM_P1;HPM_P2
2022/01/22 00:01:46;;;;;;;;;;;;;;;1.06;79.72;97914.38;5066762;28;19982;-75
2022/01/22 00:04:12;;;;;;;;;;;;;;;1.01;79.88;97912.16;5070170;28;19953;-76
2022/01/22 00:06:38;;;;;;;;;;;;;;;0.95;79.92;97916.03;5065140;28;19980;-75
2022/01/22 00:09:04;;;;;;;;;;;;;;;0.95;80.01;97913.47;5058747;28;19965;-75
2022/01/22 00:11:35;;;;;;;;;;;;;;;0.91;80.25;97906.91;5067059;28;19952;-78
2022/01/22 00:16:46;;;;;;;;;;;;;;;0.90;80.77;97900.06;5070298;28;19954;-76
2022/01/22 00:19:12;;;;;;;;;;;;;;;0.92;80.37;97894.78;5064453;28;20410;-75
2022/01/22 00:21:38;;;;;;;;;;;;;;;0.91;80.93;97895.75;5068366;28;20015;-77
2022/01/22 00:24:04;;;;;;;;;;;;;;;0.93;80.47;97891.28;5065256;28;20420;-77
2022/01/22 00:26:30;;;;;;;;;;;;;;;0.93;80.55;97897.25;5042551;28;19949;-77
2022/01/22 00:28:56;;;;;;;;;;;;;;;0.90;80.21;97894.91;5065286;28;19962;-77
2022/01/22 00:31:22;;;;;;;;;;;;;;;0.90;80.87;97888.94;5050225;28;20049;-77
2022/01/22 00:33:48;;;;;;;;;;;;;;;0.91;80.92;97881.06;5067286;28;19954;-77
2022/01/22 00:36:14;;;;;;;;;;;;;;;0.92;80.90;97890.44;5063492;28;20315;-77
2022/01/22 00:38:40;;;;;;;;;;;;;;;0.92;81.08;97894.78;5059305;28;19994;-76
2022/01/22 00:41:06;;;;;;;;;;;;;;;0.95;81.41;97897.16;5069631;28;20428;-76
2022/01/22 00:43:31;;;;;;;;;;;;;;;0.95;80.94;97903.13;5054962;28;19969;-77
2022/01/22 00:45:57;;;;;;;;;;;;;;;0.93;81.23;97897.25;5070777;28;20297;-77
2022/01/22 00:48:23;;;;;;;;;;;;;;;0.91;81.28;97893.16;5062184;28;19960;-78
2022/01/22 00:50:53;;;;;;;;;;;;;;;0.91;81.35;97891.41;5060302;28;20075;-78
2022/01/22 00:53:19;;;;;;;;;;;;;;;0.92;81.53;97890.44;5064744;28;19960;-78
2022/01/22 00:55:45;;;;;;;;;;;;;;;0.92;81.38;97887.03;5059973;28;20441;-78
2022/01/22 00:58:12;;;;;;;;;;;;;;;0.92;81.21;97890.44;5065828;28;20067;-78
2022/01/22 01:00:38;;;;;;;;;;;;;;;0.95;81.68;97897.16;5062471;28;19951;-77
2022/01/22 01:03:04;;;;;;;;;;;;;;;0.98;81.42;97887.38;5064657;28;19973;-78
2022/01/22 01:05:30;;;;;;;;;;;;;;;1.02;81.25;97890.53;5058044;28;19959;-78
2022/01/22 01:07:56;;;;;;;;;;;;;;;1.04;81.35;97891.25;5066939;28;19969;-76
2022/01/22 01:10:22;;;;;;;;;;;;;;;1.07;81.45;97890.16;5064667;28;20033;-77
2022/01/22 01:12:49;;;;;;;;;;;;;;;1.06;81.39;97886.78;5063128;28;19960;-77
2022/01/22 01:15:34;;;;;;;;;;;;;;;1.05;81.28;97884.31;5057995;28;19980;-79
2022/01/22 01:34:21;;;;;;;;;;;;;;;1.05;81.24;97886.88;5065210;28;19958;-76
2022/01/22 01:36:48;;;;;;;;;;;;;;;1.02;80.99;97890.53;5057245;28;20440;-75
2022/01/22 01:39:18;;;;;;;;;;;;;;;1.00;80.99;97895.00;5068863;28;19958;-75
2022/01/22 01:44:29;;;;;;;;;;;;;;;1.01;81.35;97897.47;5063436;28;20314;-74
2022/01/22 01:46:57;;;;;;;;;;;;;;;1.01;81.34;97894.09;5064752;28;19964;-75
2022/01/22 01:49:23;;;;;;;;;;;;;;;1.04;81.37;97895.59;5063404;28;19968;-77
2022/01/22 01:51:49;;;;;;;;;;;;;;;1.04;81.07;97895.59;5066876;28;19955;-75
2022/01/22 01:59:38;;;;;;;;;;;;;;;1.11;81.39;97910.47;5067017;28;19954;-76
2022/01/22 02:02:04;;;;;;;;;;;;;;;1.14;81.49;97915.41;5067355;28;19970;-76
2022/01/22 02:04:30;;;;;;;;;;;;;;;1.16;81.24;97910.13;5070473;28;20327;-76
2022/01/22 02:06:57;;;;;;;;;;;;;;;1.19;81.59;97917.63;5060995;28;19964;-76
2022/01/22 02:09:23;;;;;;;;;;;;;;;1.19;81.45;97905.50;5067274;28;19968;-76
2022/01/22 02:11:58;;;;;;;;;;;;;;;1.21;81.41;97906.22;5067396;28;19956;-76
2022/01/22 02:25:19;;;;;;;;;;;;;;;1.23;81.47;97902.69;5066702;28;20420;-74
2022/01/22 02:27:45;;;;;;;;;;;;;;;1.23;81.66;97889.78;5067521;28;20352;-74
2022/01/22 02:30:18;;;;;;;;;;;;;;;1.23;81.46;97887.19;5065919;28;19991;-75
2022/01/22 02:35:34;;;;;;;;;;;;;;;1.26;81.11;97882.59;5067935;28;19958;-74
2022/01/22 02:38:08;;;;;;;;;;;;;;;1.25;81.32;97888.72;5061451;28;20424;-78
2022/01/22 02:40:41;;;;;;;;;;;;;;;1.21;81.24;97890.72;5066681;28;20305;-75
2022/01/22 02:43:10;;;;;;;;;;;;;;;1.21;81.28;97884.72;5064981;28;20026;-75
2022/01/22 02:45:36;;;;;;;;;;;;;;;1.19;81.79;97889.19;5061840;28;20427;-74
2022/01/22 02:48:02;;;;;;;;;;;;;;;1.17;81.65;97897.06;5072758;28;19977;-74
2022/01/22 02:50:27;;;;;;;;;;;;;;;1.20;82.30;97888.28;5066076;28;20470;-74
2022/01/22 02:52:53;;;;;;;;;;;;;;;1.17;82.33;97891.09;5061103;28;20429;-74
2022/01/22 02:55:19;;;;;;;;;;;;;;;1.17;82.24;97886.72;5069541;28;19988;-74
2022/01/22 02:57:46;;;;;;;;;;;;;;;1.19;82.89;97887.44;5067450;28;19967;-74
2022/01/22 03:00:13;;;;;;;;;;;;;;;1.18;82.59;97885.00;5061844;28;19963;-74
2022/01/22 03:02:39;;;;;;;;;;;;;;;1.21;82.87;97890.72;5062714;28;19963;-75
2022/01/22 03:05:06;;;;;;;;;;;;;;;1.22;83.25;97883.81;5068502;28;19953;-75
2022/01/22 03:07:33;;;;;;;;;;;;;;;1.19;83.10;97886.63;5070049;28;19962;-75
2022/01/22 03:10:02;;;;;;;;;;;;;;;1.17;83.88;97897.06;5065440;28;19964;-74
2022/01/22 03:27:53;;;;;;;;;;;;;;;1.28;83.71;97900.56;5072108;28;19951;-74
2022/01/22 03:30:19;;;;;;;;;;;;;;;1.31;83.66;97900.31;5063547;28;20001;-74
2022/01/22 03:32:49;;;;;;;;;;;;;;;1.34;83.80;97892.31;5061963;28;19947;-74
2022/01/22 03:37:44;;;;;;;;;;;;;;;1.34;83.84;97892.31;5066367;28;19959;-75
2022/01/22 03:40:12;;;;;;;;;;;;;;;1.35;84.16;97893.97;5066716;28;20301;-74
2022/01/22 03:42:38;;;;;;;;;;;;;;;1.36;83.58;97888.66;5058420;28;19972;-75
2022/01/22 03:45:06;;;;;;;;;;;;;;;1.38;84.41;97894.50;5061846;28;19966;-75
2022/01/22 03:47:32;;;;;;;;;;;;;;;1.38;83.53;97888.53;5061510;28;19967;-75
2022/01/22 03:49:58;;;;;;;;;;;;;;;1.38;83.34;97897.09;5069630;28;20477;-74
2022/01/22 03:52:24;;;;;;;;;;;;;;;1.40;83.58;97886.66;5061797;28;20423;-73
2022/01/22 03:54:50;;;;;;;;;;;;;;;1.42;83.46;97889.94;5064424;28;19991;-74
2022/01/22 03:57:16;;;;;;;;;;;;;;;1.44;83.25;97880.28;5068874;28;20046;-74
2022/01/22 03:59:43;;;;;;;;;;;;;;;1.48;83.34;97893.78;5065808;28;19965;-73
2022/01/22 04:04:57;;;;;;;;;;;;;;;1.48;83.32;97881.69;5065235;28;19965;-73
2022/01/22 04:10:08;;;;;;;;;;;;;;;1.49;82.96;97875.56;5065378;28;19956;-74
2022/01/22 04:12:51;;;;;;;;;;;;;;;1.49;83.10;97875.56;5059714;28;19957;-74
2022/01/22 04:15:21;;;;;;;;;;;;;;;1.49;83.19;97874.72;5058818;28;19951;-74
2022/01/22 04:26:13;;;;;;;;;;;;;;;1.49;82.80;97874.72;5066813;28;20032;-75
2022/01/22 04:28:39;;;;;;;;;;;;;;;1.48;83.47;97867.94;5065109;28;19967;-77
2022/01/22 04:31:05;;;;;;;;;;;;;;;1.47;82.93;97874.03;5055519;28;20049;-78
2022/01/22 04:33:30;;;;;;;;;;;;;;;1.45;83.23;97871.59;5074233;28;20392;-74
2022/01/22 04:35:56;;;;;;;;;;;;;;;1.47;83.41;97874.03;5072958;28;19997;-77
2022/01/22 04:38:22;;;;;;;;;;;;;;;1.46;82.60;97880.16;5061409;28;19958;-76
2022/01/22 04:40:48;;;;;;;;;;;;;;;1.47;82.78;97874.03;5065375;28;19995;-76
2022/01/22 04:43:14;;;;;;;;;;;;;;;1.47;83.15;97877.47;5065801;28;20309;-77
2022/01/22 04:46:36;;;;;;;;;;;;;;;1.48;83.19;97878.28;5064348;28;19955;-75
2022/01/22 04:56:37;;;;;;;;;;;;;;;1.44;83.86;97871.72;5060398;28;19965;-78
2022/01/22 04:59:05;;;;;;;;;;;;;;;1.42;83.47;97869.25;5062318;28;21473;-75
2022/01/22 05:01:31;;;;;;;;;;;;;;;1.43;83.06;97873.50;5068103;28;20412;-75
2022/01/22 05:03:57;;;;;;;;;;;;;;;1.44;83.48;97871.72;5063574;28;19982;-76
2022/01/22 05:06:22;;;;;;;;;;;;;;;1.48;83.14;97878.28;5058651;28;20004;-74
2022/01/22 05:08:48;;;;;;;;;;;;;;;1.48;83.32;97878.28;5064024;28;19961;-75
2022/01/22 05:11:15;;;;;;;;;;;;;;;1.49;83.31;97877.31;5071122;28;19955;-75
2022/01/22 05:13:41;;;;;;;;;;;;;;;1.50;83.44;97877.19;5066751;28;20300;-76
2022/01/22 05:16:07;;;;;;;;;;;;;;;1.49;83.36;97875.56;5060338;28;19993;-74
2022/01/22 05:18:38;;;;;;;;;;;;;;;1.47;83.30;97872.28;5073418;28;20385;-75
2022/01/22 05:21:09;;;;;;;;;;;;;;;1.50;83.35;97884.16;5059598;28;19959;-75
2022/01/22 05:23:37;;;;;;;;;;;;;;;1.50;83.77;97866.84;5062812;28;19979;-75
2022/01/22 05:26:07;;;;;;;;;;;;;;;1.49;83.17;97873.00;5062256;28;19959;-78
2022/01/22 05:31:33;;;;;;;;;;;;;;;1.51;83.18;97884.03;5061807;28;19954;-74
2022/01/22 05:37:00;;;;;;;;;;;;;;;1.50;82.80;97887.53;5065046;28;19963;-74
2022/01/22 05:39:28;;;;;;;;;;;;;;;1.50;83.05;97897.88;5055769;28;20359;-75
2022/01/22 05:41:55;;;;;;;;;;;;;;;1.51;83.16;97901.28;5066303;28;19963;-75
2022/01/22 05:44:21;;;;;;;;;;;;;;;1.52;82.99;97908.09;5067108;28;19983;-74
2022/01/22 05:46:48;;;;;;;;;;;;;;;1.52;83.08;97903.75;5059521;28;19952;-74
2022/01/22 05:49:14;;;;;;;;;;;;;;;1.53;82.96;97907.97;5063506;28;19955;-74
2022/01/22 05:51:43;;;;;;;;;;;;;;;1.53;82.79;97910.53;5067992;28;19975;-77
2022/01/22 05:54:31;;;;;;;;;;;;;;;1.55;82.87;97910.44;5064162;28;19962;-76
2022/01/22 05:59:42;;;;;;;;;;;;;;;1.58;82.92;97911.00;5073120;28;19957;-76
2022/01/22 06:02:16;;;;;;;;;;;;;;;1.59;82.82;97909.25;5056201;28;19955;-75
2022/01/22 06:04:43;;;;;;;;;;;;;;;1.58;82.60;97905.03;5072749;28;19964;-74
2022/01/22 06:07:09;;;;;;;;;;;;;;;1.57;82.74;97899.00;5062045;28;19966;-74
2022/01/22 06:09:38;;;;;;;;;;;;;;;1.58;82.51;97911.00;5069175;28;19957;-74
2022/01/22 06:14:33;;;;;;;;;;;;;;;1.54;82.31;97913.97;5065202;28;20332;-74
2022/01/22 06:16:59;;;;;;;;;;;;;;;1.51;82.58;97921.97;5061332;28;19956;-76
2022/01/22 06:19:25;;;;;;;;;;;;;;;1.47;82.57;97912.81;5062575;28;19959;-76
2022/01/22 06:21:51;;;;;;;;;;;;;;;1.45;82.73;97923.31;5071463;28;19955;-76
2022/01/22 06:24:18;;;;;;;;;;;;;;;1.40;82.85;97923.66;5066248;28;19973;-74
2022/01/22 06:26:44;;;;;;;;;;;;;;;1.39;83.16;97931.53;5067391;28;19963;-75
2022/01/22 06:29:10;;;;;;;;;;;;;;;1.38;83.28;97932.47;5064822;28;19950;-74
2022/01/22 06:31:35;;;;;;;;;;;;;;;1.40;83.09;97928.81;5066225;28;19985;-74
2022/01/22 06:34:02;;;;;;;;;;;;;;;1.42;83.02;97939.84;5066449;28;19996;-74
2022/01/22 06:36:28;;;;;;;;;;;;;;;1.45;83.00;97938.81;5068761;28;19949;-73
2022/01/22 06:41:56;;;;;;;;;;;;;;;1.51;83.15;97945.22;4961564;28;19953;-73
2022/01/22 06:44:23;;;;;;;;;;;;;;;1.53;83.09;97941.56;5051184;28;19977;-74
2022/01/22 06:46:50;;;;;;;;;;;;;;;1.54;83.10;97938.06;5069303;28;19959;-74
2022/01/22 06:49:16;;;;;;;;;;;;;;;1.56;82.84;97945.69;5056647;28;19987;-74
2022/01/22 06:51:43;;;;;;;;;;;;;;;1.57;82.85;97939.56;5068344;28;19982;-74
2022/01/22 06:54:10;;;;;;;;;;;;;;;1.55;82.75;97947.44;5058140;28;20346;-74
2022/01/22 06:56:37;;;;;;;;;;;;;;;1.51;82.69;97946.06;5067833;28;20412;-74
2022/01/22 06:59:03;;;;;;;;;;;;;;;1.48;83.19;97946.31;5064919;28;19952;-74
2022/01/22 07:01:29;;;;;;;;;;;;;;;1.48;82.98;97945.50;5065735;28;19952;-75
2022/01/22 07:03:55;;;;;;;;;;;;;;;1.47;83.18;97947.25;5056456;28;19966;-74
2022/01/22 07:06:22;;;;;;;;;;;;;;;1.49;83.27;97958.31;5064586;28;19956;-74
2022/01/22 07:08:49;;;;;;;;;;;;;;;1.51;83.14;97953.84;5075845;28;20397;-74
2022/01/22 07:11:15;;;;;;;;;;;;;;;1.54;83.17;97963.09;5057535;28;19956;-74
2022/01/22 07:13:41;;;;;;;;;;;;;;;1.55;83.05;97967.31;5066194;28;19961;-73
2022/01/22 07:16:07;;;;;;;;;;;;;;;1.57;82.80;97962.84;5066137;28;19954;-73
2022/01/22 07:18:33;;;;;;;;;;;;;;;1.59;83.04;97960.94;5062654;28;20312;-74
2022/01/22 07:21:03;;;;;;;;;;;;;;;1.56;82.68;97953.47;5065534;28;19964;-73
2022/01/22 07:23:56;;;;;;;;;;;;;;;1.57;82.78;97958.47;5066310;28;19972;-74
2022/01/22 07:26:17;;;;;;;;;;;;;;;1.59;83.07;97951.44;5069991;28;20037;-73
2022/01/22 07:28:43;;;;;;;;;;;;;;;1.60;82.98;97955.66;5066752;28;19961;-74
2022/01/22 07:31:10;;;;;;;;;;;;;;;1.61;82.95;97952.13;5062957;28;20018;-73
2022/01/22 07:33:36;;;;;;;;;;;;;;;1.62;83.11;97955.56;5064926;28;20406;-74
2022/01/22 07:36:02;;;;;;;;;;;;;;;1.63;82.72;97958.00;5062402;28;19974;-73
2022/01/22 07:38:28;;;;;;;;;;;;;;;1.64;82.65;97953.66;5065298;28;19961;-73
2022/01/22 07:40:54;;;;;;;;;;;;;;;1.63;82.57;97958.00;5064846;28;19960;-74
2022/01/22 07:43:20;;;;;;;;;;;;;;;1.64;82.72;97956.25;5067544;28;19970;-74
2022/01/22 07:45:46;;;;;;;;;;;;;;;1.64;82.70;97961.41;5058024;28;19957;-73
2022/01/22 07:48:12;;;;;;;;;;;;;;;1.63;82.86;97962.34;5070796;28;20436;-74
2022/01/22 07:50:38;;;;;;;;;;;;;;;1.58;82.62;97961.91;5064699;28;19963;-74
2022/01/22 07:53:04;;;;;;;;;;;;;;;1.50;82.79;97962.53;5056166;28;20014;-74
2022/01/22 07:55:30;;;;;;;;;;;;;;;1.46;83.36;97961.13;5064307;28;19965;-74
2022/01/22 07:57:56;;;;;;;;;;;;;;;1.42;83.49;97957.13;5065777;28;20037;-73
2022/01/22 08:00:22;;;;;;;;;;;;;;;1.46;83.52;97960.31;5049517;28;19996;-74
2022/01/22 08:02:48;;;;;;;;;;;;;;;1.50;83.91;97959.13;5058086;28;19987;-74
2022/01/22 08:05:15;;;;;;;;;;;;;;;1.56;83.45;97963.81;5066437;28;19953;-74
2022/01/22 08:07:44;;;;;;;;;;;;;;;1.56;83.43;97954.28;5069316;28;19959;-74
2022/01/22 08:10:12;;;;;;;;;;;;;;;1.59;83.20;97960.94;5067579;28;19960;-73
2022/01/22 08:12:38;;;;;;;;;;;;;;;1.59;83.02;97963.53;5061818;28;19967;-74
2022/01/22 08:15:05;;;;;;;;;;;;;;;1.59;83.06;97966.94;5044684;28;19967;-73
2022/01/22 08:17:31;;;;;;;;;;;;;;;1.58;82.94;97969.66;5064407;28;19950;-74
2022/01/22 08:19:57;;;;;;;;;;;;;;;1.58;83.04;97959.31;5064736;28;19957;-74
2022/01/22 08:22:23;;;;;;;;;;;;;;;1.60;83.37;97968.59;5063720;28;19958;-74
2022/01/22 08:24:52;;;;;;;;;;;;;;;1.58;83.06;97962.72;5047648;28;19977;-74
2022/01/22 08:27:33;;;;;;;;;;;;;;;1.61;83.31;97969.41;5060208;28;19961;-74
2022/01/22 08:29:59;;;;;;;;;;;;;;;1.61;82.90;97972.00;5061451;28;19961;-74
2022/01/22 08:37:41;;;;;;;;;;;;;;;1.57;83.60;97976.59;5061291;28;19953;-75
2022/01/22 08:40:08;;;;;;;;;;;;;;;1.60;83.69;97972.97;5062509;28;20053;-74
2022/01/22 08:42:35;;;;;;;;;;;;;;;1.65;83.81;97978.56;5061829;28;19952;-74
2022/01/22 08:45:01;;;;;;;;;;;;;;;1.72;83.46;97971.97;5069188;28;20437;-74
2022/01/22 08:47:26;;;;;;;;;;;;;;;1.76;83.28;97975.91;5066215;28;19963;-74
2022/01/22 08:49:52;;;;;;;;;;;;;;;1.83;83.26;97971.09;5046912;28;20403;-73
2022/01/22 08:52:23;;;;;;;;;;;;;;;1.88;82.94;97981.88;5061989;28;20032;-73
2022/01/22 08:54:49;;;;;;;;;;;;;;;1.94;83.27;97973.63;5064399;28;19957;-73
2022/01/22 08:57:15;;;;;;;;;;;;;;;1.97;83.22;97977.72;5065829;28;20451;-73
2022/01/22 08:59:42;;;;;;;;;;;;;;;1.99;82.65;97973.22;5059865;28;19958;-74
2022/01/22 09:02:08;;;;;;;;;;;;;;;2.01;82.32;97973.94;5059187;28;19966;-74
2022/01/22 09:04:34;;;;;;;;;;;;;;;2.05;82.39;97980.50;5063093;28;19967;-74
2022/01/22 09:07:00;;;;;;;;;;;;;;;2.10;82.17;97975.78;5067077;28;19956;-74
2022/01/22 09:09:26;;;;;;;;;;;;;;;2.14;82.34;97989.25;5063700;28;20427;-75
2022/01/22 09:11:53;;;;;;;;;;;;;;;2.17;82.21;98002.78;5058715;28;19944;-75
2022/01/22 09:14:19;;;;;;;;;;;;;;;2.19;81.58;98000.06;5058197;28;19960;-75
2022/01/22 09:16:46;;;;;;;;;;;;;;;2.21;81.95;98004.16;5063113;28;20055;-74
2022/01/22 09:19:12;;;;;;;;;;;;;;;2.25;81.77;98007.34;5067755;28;19952;-74
2022/01/22 09:21:41;;;;;;;;;;;;;;;2.24;81.47;98003.91;5066186;28;20408;-75
2022/01/22 09:24:07;;;;;;;;;;;;;;;2.24;81.45;98016.84;5062379;28;19964;-76
2022/01/22 09:26:33;;;;;;;;;;;;;;;2.23;81.33;98017.00;5062988;28;19960;-76
2022/01/22 09:29:00;;;;;;;;;;;;;;;2.21;81.33;98024.88;5068063;28;19957;-77
2022/01/22 09:31:27;;;;;;;;;;;;;;;2.21;81.61;98026.66;5067458;28;19963;-73
2022/01/22 09:33:59;;;;;;;;;;;;;;;2.21;81.78;98037.00;5057332;28;19947;-74
2022/01/22 09:36:25;;;;;;;;;;;;;;;2.21;81.57;98030.06;5062452;28;19961;-76
2022/01/22 09:38:51;;;;;;;;;;;;;;;2.24;81.64;98022.03;5072769;28;19963;-76
2022/01/22 09:41:18;;;;;;;;;;;;;;;2.27;81.37;98017.53;5062801;28;19957;-76
2022/01/22 09:43:44;;;;;;;;;;;;;;;2.29;81.96;98008.72;5066048;28;19974;-76
2022/01/22 09:46:10;;;;;;;;;;;;;;;2.32;82.00;98018.81;5064455;28;19960;-76
2022/01/22 09:48:43;;;;;;;;;;;;;;;2.37;82.25;98018.44;5069538;28;19951;-75
2022/01/22 09:51:09;;;;;;;;;;;;;;;2.41;82.53;98019.81;5064761;28;19970;-75
2022/01/22 09:53:36;;;;;;;;;;;;;;;2.39;82.21;98022.56;5061245;28;20332;-75
2022/01/22 09:56:02;;;;;;;;;;;;;;;2.41;82.56;98025.00;5071025;28;20397;-76
2022/01/22 09:58:30;;;;;;;;;;;;;;;2.44;82.10;98024.75;5061816;28;20411;-75
2022/01/22 10:01:14;;;;;;;;;;;;;;;2.44;83.72;98019.56;5060284;28;19970;-77
2022/01/22 10:03:40;;;;;;;;;;;;;;;2.51;83.09;98023.28;5064389;28;20425;-76
2022/01/22 10:06:12;;;;;;;;;;;;;;;2.60;82.97;98013.91;5063962;28;20052;-75
2022/01/22 10:08:39;;;;;;;;;;;;;;;2.67;82.65;98009.03;5063720;28;19958;-75
2022/01/22 10:11:14;;;;;;;;;;;;;;;2.73;82.46;98011.09;5066076;28;19960;-75
2022/01/22 10:13:46;;;;;;;;;;;;;;;2.78;82.72;98012.38;5069132;28;19948;-76
2022/01/22 10:16:12;;;;;;;;;;;;;;;2.85;82.75;98013.47;5067716;28;19954;-75
2022/01/22 10:18:39;;;;;;;;;;;;;;;2.88;82.31;98017.59;5071830;28;19962;-76
2022/01/22 10:21:09;;;;;;;;;;;;;;;2.92;82.53;98019.00;5067707;28;20027;-75
2022/01/22 10:23:39;;;;;;;;;;;;;;;2.95;82.45;98017.91;5067091;28;20329;-75
2022/01/22 10:26:08;;;;;;;;;;;;;;;2.99;82.28;98016.69;5065213;28;19954;-75
2022/01/22 10:28:39;;;;;;;;;;;;;;;3.09;90.38;98016.69;5068889;28;20316;-78
2022/01/22 10:31:07;;;;;;;;;;;;;;;3.64;87.79;98019.72;5047560;28;19967;-76
2022/01/22 10:33:35;;;;;;;;;;;;;;;3.77;80.93;98012.47;5064299;28;19952;-77
2022/01/22 10:36:10;;;;;;;;;;;;;;;3.71;80.48;98014.78;5064533;28;19955;-77
2022/01/22 10:38:43;;;;;;;;;;;;;;;3.59;80.69;98022.72;5059825;28;20306;-75
2022/01/22 10:41:09;;;;;;;;;;;;;;;3.59;83.15;98012.34;5076321;28;20423;-75
2022/01/22 10:43:41;;;;;;;;;;;;;;;3.66;83.82;98010.81;5066329;28;20058;-75
2022/01/22 10:48:52;;;;;;;;;;;;;;;3.69;79.79;98008.91;5056764;28;19960;-75
2022/01/22 10:51:18;;;;;;;;;;;;;;;3.58;79.54;98002.09;5068021;28;19959;-73
2022/01/22 10:53:51;;;;;;;;;;;;;;;3.47;79.34;97999.63;5065833;28;20410;-76
2022/01/22 10:56:19;;;;;;;;;;;;;;;3.35;80.81;97996.31;5068970;28;20310;-75
2022/01/22 10:58:51;;;;;;;;;;;;;;;3.27;80.66;97993.56;5069565;28;19955;-75
2022/01/22 11:01:17;;;;;;;;;;;;;;;3.20;80.41;97990.69;5059127;28;20452;-76
2022/01/22 11:03:43;;;;;;;;;;;;;;;3.21;80.91;98000.09;5065022;28;19965;-76
2022/01/22 11:06:23;;;;;;;;;;;;;;;3.23;80.48;97980.88;5051948;28;20049;-75
2022/01/22 11:08:49;;;;;;;;;;;;;;;3.25;80.81;97978.97;5063678;28;19955;-76
2022/01/22 11:11:15;;;;;;;;;;;;;;;3.31;81.11;97987.97;5067949;28;19959;-75
2022/01/22 11:13:41;;;;;;;;;;;;;;;3.33;80.99;97985.25;5072707;28;19956;-76
2022/01/22 11:16:07;;;;;;;;;;;;;;;3.33;81.41;97983.47;5069730;28;19951;-75
2022/01/22 11:18:33;;;;;;;;;;;;;;;3.34;81.34;97976.50;5067268;28;19964;-75
2022/01/22 11:21:00;;;;;;;;;;;;;;;3.34;81.34;97982.53;5065469;28;19964;-75
2022/01/22 11:23:27;;;;;;;;;;;;;;;3.33;81.29;97985.25;5075650;28;19952;-75
2022/01/22 11:25:54;;;;;;;;;;;;;;;3.33;81.06;97985.25;5063504;28;19957;-74
2022/01/22 11:28:20;;;;;;;;;;;;;;;3.34;81.30;97981.69;5038884;28;19949;-74
2022/01/22 11:30:47;;;;;;;;;;;;;;;3.34;81.07;97979.09;5070357;28;19954;-75
2022/01/22 11:33:16;;;;;;;;;;;;;;;3.37;80.84;97979.66;5075099;28;19959;-74
2022/01/22 11:35:48;;;;;;;;;;;;;;;3.42;80.46;97977.50;5067464;28;19975;-75
2022/01/22 11:38:20;;;;;;;;;;;;;;;3.45;80.51;97973.81;5060204;28;19952;-75
2022/01/22 11:41:06;;;;;;;;;;;;;;;3.49;81.00;97982.97;5057385;28;19962;-74
2022/01/22 11:43:59;;;;;;;;;;;;;;;3.51;80.73;97982.81;5074473;28;19961;-75
2022/01/22 11:46:36;;;;;;;;;;;;;;;3.49;80.16;97979.56;5066182;28;19950;-75
2022/01/22 11:49:09;;;;;;;;;;;;;;;3.42;79.89;97982.69;5066702;28;20040;-76
2022/01/22 11:51:35;;;;;;;;;;;;;;;3.39;80.70;97982.94;5055535;28;19978;-76
2022/01/22 11:54:01;;;;;;;;;;;;;;;3.40;80.21;97983.75;5055818;28;20046;-77
2022/01/22 11:56:31;;;;;;;;;;;;;;;3.44;80.62;97979.94;5064344;28;19951;-76
2022/01/22 11:59:01;;;;;;;;;;;;;;;3.50;81.40;97974.22;5072852;28;19955;-75
2022/01/22 12:01:46;;;;;;;;;;;;;;;3.55;81.03;97985.03;5062288;28;19964;-75
2022/01/22 12:04:14;;;;;;;;;;;;;;;3.61;80.52;97988.81;5075384;28;19960;-76
2022/01/22 12:06:59;;;;;;;;;;;;;;;3.61;79.80;97981.88;5060036;28;19957;-76
2022/01/22 12:09:26;;;;;;;;;;;;;;;3.60;79.73;97982.00;5054809;28;19947;-76
2022/01/22 12:14:50;;;;;;;;;;;;;;;3.61;79.78;97968.91;5058349;28;20429;-75
2022/01/22 12:17:35;;;;;;;;;;;;;;;3.67;80.04;97972.72;5055369;28;19951;-74
2022/01/22 12:20:17;;;;;;;;;;;;;;;3.75;79.81;97978.03;5055496;28;19965;-75
2022/01/22 12:22:43;;;;;;;;;;;;;;;3.80;79.60;97972.44;5067679;28;19987;-75
2022/01/22 12:25:12;;;;;;;;;;;;;;;3.77;78.84;97968.34;5064534;28;20463;-76
2022/01/22 12:27:42;;;;;;;;;;;;;;;3.78;79.34;97969.16;5074037;28;19960;-75
2022/01/22 12:30:08;;;;;;;;;;;;;;;3.83;79.48;97972.19;5075201;28;19963;-75
2022/01/22 12:32:47;;;;;;;;;;;;;;;3.85;79.56;97973.69;5057454;28;19957;-75
2022/01/22 12:35:16;;;;;;;;;;;;;;;3.90;79.49;97985.44;5068216;28;19949;-76
2022/01/22 12:37:46;;;;;;;;;;;;;;;3.92;79.75;97976.53;5069961;28;19958;-76
2022/01/22 12:40:13;;;;;;;;;;;;;;;3.94;79.87;97974.63;5065816;28;19968;-76
2022/01/22 12:42:52;;;;;;;;;;;;;;;3.96;79.43;97975.31;5064653;28;20336;-76
2022/01/22 12:45:20;;;;;;;;;;;;;;;3.97;79.38;97968.31;5074523;28;19972;-76
2022/01/22 12:47:47;;;;;;;;;;;;;;;3.93;79.25;97967.81;5056916;28;19985;-75
2022/01/22 12:50:13;;;;;;;;;;;;;;;3.90;79.86;97970.66;5075215;28;19955;-76
2022/01/22 12:52:45;;;;;;;;;;;;;;;3.85;79.30;97973.69;5074067;28;20397;-76
2022/01/22 12:55:19;;;;;;;;;;;;;;;3.84;79.58;97966.88;5073807;28;19971;-76
2022/01/22 12:57:45;;;;;;;;;;;;;;;3.85;80.32;97967.69;5067955;28;19956;-76
2022/01/22 13:00:21;;;;;;;;;;;;;;;3.85;80.67;97973.69;5053860;28;19958;-76
2022/01/22 13:02:50;;;;;;;;;;;;;;;3.82;80.74;97973.97;5053858;28;20402;-76
2022/01/22 13:05:19;;;;;;;;;;;;;;;3.81;80.75;97977.50;5059456;28;19968;-76
2022/01/22 13:07:52;;;;;;;;;;;;;;;3.78;80.94;97975.19;5074108;28;19949;-76
2022/01/22 13:10:19;;;;;;;;;;;;;;;3.78;81.13;97971.75;5059085;28;19955;-76
2022/01/22 13:12:46;;;;;;;;;;;;;;;3.77;81.35;97963.16;5061539;28;19962;-75
2022/01/22 13:15:16;;;;;;;;;;;;;;;3.78;81.53;97967.41;5069547;28;20039;-75
2022/01/22 13:17:50;;;;;;;;;;;;;;;3.78;81.43;97967.41;5065040;28;19968;-75
2022/01/22 13:20:20;;;;;;;;;;;;;;;3.77;81.49;97973.53;5053774;28;19950;-76
2022/01/22 13:22:46;;;;;;;;;;;;;;;3.78;81.85;97961.38;5053363;28;19969;-76
2022/01/22 13:25:13;;;;;;;;;;;;;;;3.78;81.40;97953.59;5054300;28;19968;-76
2022/01/22 13:27:40;;;;;;;;;;;;;;;3.76;81.04;97948.56;5068314;28;20303;-76
2022/01/22 13:30:08;;;;;;;;;;;;;;;3.77;80.93;97952.78;5053768;28;19959;-75
2022/01/22 13:33:05;;;;;;;;;;;;;;;3.77;80.61;97946.78;5068096;28;20301;-76
2022/01/22 13:49:29;;;;;;;;;;;;;;;3.64;81.29;97954.84;5076629;28;19951;-76
2022/01/22 13:51:59;;;;;;;;;;;;;;;3.67;81.87;97959.75;5077216;28;19977;-76
2022/01/22 13:54:27;;;;;;;;;;;;;;;3.66;81.50;97960.72;5063487;28;19960;-76
2022/01/22 13:56:56;;;;;;;;;;;;;;;3.61;81.54;97958.53;5062004;28;20419;-75
2022/01/22 13:59:26;;;;;;;;;;;;;;;3.59;81.32;97955.25;5077099;28;20316;-76
2022/01/22 14:02:10;;;;;;;;;;;;;;;3.59;81.44;97969.97;5077756;28;19978;-76
2022/01/22 14:04:40;;;;;;;;;;;;;;;3.60;81.59;97959.47;5071529;28;19968;-75
2022/01/22 14:07:12;;;;;;;;;;;;;;;3.62;82.12;97962.75;5072420;28;19960;-75
2022/01/22 14:09:38;;;;;;;;;;;;;;;3.64;81.93;97960.03;5053228;28;19960;-75
2022/01/22 14:12:05;;;;;;;;;;;;;;;3.66;81.96;97968.50;5061774;28;19995;-75
2022/01/22 14:14:50;;;;;;;;;;;;;;;3.69;81.39;97964.81;5067047;28;19992;-76
2022/01/22 14:17:16;;;;;;;;;;;;;;;3.71;81.17;97968.09;5066228;28;19974;-76
2022/01/22 14:19:42;;;;;;;;;;;;;;;3.71;83.03;97968.91;5061920;28;19955;-76
2022/01/22 14:22:08;;;;;;;;;;;;;;;3.76;81.07;97960.69;5064129;28;19976;-76
2022/01/22 14:24:34;;;;;;;;;;;;;;;3.80;81.47;97969.84;5066849;28;20431;-76
2022/01/22 14:27:00;;;;;;;;;;;;;;;3.80;81.40;97973.28;5067863;28;20488;-76
2022/01/22 14:29:26;;;;;;;;;;;;;;;3.82;80.97;97963.59;5064565;28;19947;-76
2022/01/22 14:31:54;;;;;;;;;;;;;;;3.82;80.68;97962.75;5063843;28;19963;-75
2022/01/22 14:34:36;;;;;;;;;;;;;;;3.82;81.06;97962.75;5067362;28;19987;-76
2022/01/22 14:37:03;;;;;;;;;;;;;;;3.81;80.77;97956.75;5073435;28;20301;-76
2022/01/22 14:43:53;;;;;;;;;;;;;;;3.79;80.90;97965.63;5052623;28;19956;-76
2022/01/22 14:45:12;;;;;;;;;;;;;;;3.74;80.31;97966.03;5068710;28;19976;-77
2022/01/22 14:47:38;;;;;;;;;;;;;;;3.70;80.48;97969.88;5067299;28;19962;-76
2022/01/22 14:50:09;;;;;;;;;;;;;;;3.66;80.46;97971.91;5067062;28;19957;-77
2022/01/22 14:52:35;;;;;;;;;;;;;;;3.62;79.84;97970.53;5065699;28;19986;-77
2022/01/22 14:55:03;;;;;;;;;;;;;;;3.58;80.05;97987.31;5065227;28;19955;-77
2022/01/22 14:57:33;;;;;;;;;;;;;;;3.67;80.42;97990.88;5066150;28;19962;-76
2022/01/22 15:00:05;;;;;;;;;;;;;;;4.16;90.63;97990.84;5069921;28;20439;-76
2022/01/22 15:02:31;;;;;;;;;;;;;;;4.36;81.31;97992.47;5045680;28;19965;-77
2022/01/22 15:04:57;;;;;;;;;;;;;;;4.34;79.84;97993.56;5065872;28;19961;-76
2022/01/22 15:07:23;;;;;;;;;;;;;;;4.23;78.95;97991.94;5065875;28;20403;-77